Time;durP1;ratioP1;P1;durP2;ratioP2;P2;SDS_P1;SDS_P2;PMS_P1;PMS_P2;Temp;Humidity;BMP_temperature;BMP_pressure;BME280_temperature;BME280_humidity;BME280_pressure;Samples;Min_cycle;Max_cycle;Signal;HPM_P1;HPM_P2
2024/03/22 00:00:00;;;;;;;32.80;25.40;;;;;;;2.81;100.00;100680.32;87591;269;22570;-72
2024/03/22 00:02:01;;;;;;;37.70;26.30;;;;;;;2.81;100.00;100682.16;87417;277;138370;-73
2024/03/22 00:04:01;;;;;;;35.00;26.10;;;;;;;2.79;100.00;100676.86;87509;270;22560;-76
2024/03/22 00:06:02;;;;;;;35.80;25.50;;;;;;;2.77;100.00;100676.16;87450;269;136477;-73
2024/03/22 00:08:04;;;;;;;39.70;28.00;;;;;;;2.73;100.00;100674.00;87451;269;137198;-74
2024/03/22 00:10:06;;;;;;;39.10;25.30;;;;;;;2.71;100.00;100674.16;87504;269;22752;-74
2024/03/22 00:12:07;;;;;;;31.60;24.40;;;;;;;2.69;100.00;100672.09;87771;269;136922;-71
2024/03/22 00:14:08;;;;;;;41.10;26.80;;;;;;;2.67;100.00;100674.86;87540;272;22870;-73
2024/03/22 00:16:09;;;;;;;39.30;25.60;;;;;;;2.65;100.00;100673.95;87482;278;137604;-74
2024/03/22 00:18:10;;;;;;;32.80;26.10;;;;;;;2.65;100.00;100675.75;87583;276;22543;-72
2024/03/22 00:20:11;;;;;;;34.70;25.40;;;;;;;2.65;100.00;100671.73;87397;278;138407;-73
2024/03/22 00:22:12;;;;;;;36.80;25.10;;;;;;;2.65;100.00;100670.45;87514;270;25246;-74
2024/03/22 00:24:13;;;;;;;36.60;26.70;;;;;;;2.65;100.00;100672.09;87367;266;137143;-71
2024/03/22 00:26:13;;;;;;;37.50;25.40;;;;;;;2.63;100.00;100671.55;87477;270;22555;-74
2024/03/22 00:28:14;;;;;;;33.00;26.00;;;;;;;2.62;100.00;100668.80;87258;268;138204;-73
2024/03/22 00:30:15;;;;;;;34.20;26.60;;;;;;;2.60;100.00;100665.64;87481;269;22558;-72
2024/03/22 00:32:16;;;;;;;40.60;27.90;;;;;;;2.57;100.00;100662.35;87377;277;138210;-73
2024/03/22 00:34:16;;;;;;;38.00;28.20;;;;;;;2.53;100.00;100659.86;87519;273;25240;-73
2024/03/22 00:36:17;;;;;;;35.50;26.80;;;;;;;2.48;100.00;100660.96;87349;266;137698;-71
2024/03/22 00:38:18;;;;;;;34.40;27.40;;;;;;;2.45;100.00;100659.83;87483;265;24150;-74
2024/03/22 00:40:20;;;;;;;33.90;26.30;;;;;;;2.43;100.00;100656.83;87434;273;137086;-72
2024/03/22 00:42:21;;;;;;;34.40;26.50;;;;;;;2.43;100.00;100657.07;87535;270;23999;-71
2024/03/22 00:44:22;;;;;;;38.30;27.80;;;;;;;2.42;100.00;100654.63;87451;271;137324;-72
2024/03/22 00:46:23;;;;;;;39.70;29.10;;;;;;;2.43;100.00;100652.67;87546;274;23245;-75
2024/03/22 00:48:24;;;;;;;35.90;28.70;;;;;;;2.44;100.00;100654.11;87507;266;137098;-74
2024/03/22 00:50:24;;;;;;;36.20;26.70;;;;;;;2.46;100.00;100650.48;87601;269;22568;-73
2024/03/22 00:52:25;;;;;;;38.50;28.10;;;;;;;2.47;100.00;100653.22;87426;279;137562;-73
2024/03/22 00:54:26;;;;;;;38.40;28.90;;;;;;;2.47;100.00;100651.98;87613;269;24244;-74
2024/03/22 00:56:27;;;;;;;37.70;27.80;;;;;;;2.45;100.00;100645.64;87522;269;137127;-73
2024/03/22 00:58:29;;;;;;;35.60;26.30;;;;;;;2.44;100.00;100648.55;87590;266;25129;-74
2024/03/22 01:00:29;;;;;;;36.10;27.50;;;;;;;2.41;100.00;100650.34;87430;278;137035;-72
2024/03/22 01:02:30;;;;;;;39.70;28.20;;;;;;;2.39;100.00;100645.77;87428;271;24848;-73
2024/03/22 01:04:31;;;;;;;39.80;27.50;;;;;;;2.38;100.00;100643.79;87347;271;137170;-76
2024/03/22 01:06:31;;;;;;;35.90;27.90;;;;;;;2.38;100.00;100641.89;87562;273;22581;-72
2024/03/22 01:08:32;;;;;;;39.90;28.90;;;;;;;2.37;100.00;100639.15;87467;272;136492;-73
2024/03/22 01:10:34;;;;;;;40.40;28.20;;;;;;;2.35;100.00;100637.33;87526;270;22672;-73
2024/03/22 01:12:35;;;;;;;34.40;25.90;;;;;;;2.33;100.00;100642.23;87447;270;138251;-73
2024/03/22 01:14:36;;;;;;;36.10;27.00;;;;;;;2.31;100.00;100641.86;87536;273;22659;-74
2024/03/22 01:16:37;;;;;;;38.70;28.00;;;;;;;2.28;100.00;100641.79;87335;279;136858;-72
2024/03/22 01:18:38;;;;;;;42.50;28.50;;;;;;;2.26;100.00;100641.77;87547;269;22620;-73
2024/03/22 01:20:39;;;;;;;38.60;27.30;;;;;;;2.24;100.00;100643.02;87335;277;138066;-73
2024/03/22 01:22:40;;;;;;;35.40;27.20;;;;;;;2.23;100.00;100648.38;87517;265;22649;-73
2024/03/22 01:24:40;;;;;;;35.00;26.50;;;;;;;2.20;100.00;100647.20;87408;273;136711;-73
2024/03/22 01:26:42;;;;;;;45.80;27.00;;;;;;;2.17;100.00;100644.64;87539;270;22578;-74
2024/03/22 01:28:42;;;;;;;33.50;26.40;;;;;;;2.12;100.00;100644.98;86788;278;849559;-73
2024/03/22 01:30:43;;;;;;;35.20;26.80;;;;;;;2.07;100.00;100645.61;87415;272;22576;-73
2024/03/22 01:32:44;;;;;;;42.70;28.60;;;;;;;2.02;100.00;100646.04;87468;265;136665;-74
2024/03/22 01:34:45;;;;;;;35.30;27.40;;;;;;;1.98;100.00;100644.27;87599;269;22569;-72
2024/03/22 01:36:45;;;;;;;43.70;29.60;;;;;;;1.96;100.00;100640.73;87442;270;137465;-75
2024/03/22 01:38:46;;;;;;;34.40;26.80;;;;;;;1.94;100.00;100641.21;87532;272;22581;-73
2024/03/22 01:40:47;;;;;;;34.80;28.40;;;;;;;1.94;100.00;100639.66;87466;277;136976;-72
2024/03/22 01:42:48;;;;;;;36.70;27.20;;;;;;;1.95;100.00;100639.56;87524;269;22601;-72
2024/03/22 01:44:49;;;;;;;37.40;27.20;;;;;;;1.94;100.00;100639.98;87457;277;137140;-75
2024/03/22 01:46:50;;;;;;;42.10;28.80;;;;;;;1.93;100.00;100641.50;87549;273;24023;-71
2024/03/22 01:48:52;;;;;;;37.80;27.00;;;;;;;1.93;100.00;100641.89;87494;271;136895;-75
2024/03/22 01:50:53;;;;;;;40.60;27.10;;;;;;;1.90;100.00;100640.69;87535;271;22605;-73
2024/03/22 01:52:54;;;;;;;35.20;28.80;;;;;;;1.87;100.00;100638.18;87439;270;136982;-73
2024/03/22 01:54:55;;;;;;;38.10;29.20;;;;;;;1.83;100.00;100638.51;87604;272;25238;-74
2024/03/22 01:56:56;;;;;;;38.80;29.90;;;;;;;1.79;100.00;100636.50;87429;274;136967;-72
2024/03/22 01:58:57;;;;;;;40.90;29.80;;;;;;;1.76;100.00;100635.89;87519;269;24286;-72
2024/03/22 02:00:58;;;;;;;37.20;28.10;;;;;;;1.72;100.00;100640.88;87438;270;138444;-75
2024/03/22 02:02:59;;;;;;;36.50;29.70;;;;;;;1.68;100.00;100638.27;87465;275;26318;-72
2024/03/22 02:05:11;;;;;;;38.20;28.50;;;;;;;1.66;100.00;100640.54;87369;271;137613;-74
2024/03/22 02:07:12;;;;;;;41.00;31.30;;;;;;;1.64;100.00;100640.88;87742;266;24004;-72
2024/03/22 02:09:15;;;;;;;35.40;29.40;;;;;;;1.62;100.00;100641.22;87449;273;137517;-72
2024/03/22 02:11:15;;;;;;;38.30;28.80;;;;;;;1.61;100.00;100640.10;87503;279;22575;-73
2024/03/22 02:13:16;;;;;;;39.80;29.10;;;;;;;1.59;100.00;100638.14;87429;275;136933;-70
2024/03/22 02:15:17;;;;;;;38.50;29.00;;;;;;;1.60;100.00;100636.52;87542;274;25183;-73
2024/03/22 02:17:17;;;;;;;42.30;29.90;;;;;;;1.58;100.00;100633.14;87464;272;137917;-72
2024/03/22 02:19:18;;;;;;;41.50;30.50;;;;;;;1.57;100.00;100631.28;87542;273;23278;-73
2024/03/22 02:21:19;;;;;;;39.40;30.70;;;;;;;1.58;100.00;100632.26;87422;272;136922;-73
2024/03/22 02:23:32;;;;;;;40.20;29.10;;;;;;;1.59;100.00;100632.14;87494;269;22563;-74
2024/03/22 02:25:33;;;;;;;42.30;29.30;;;;;;;1.61;100.00;100633.20;87458;274;139804;-73
2024/03/22 02:27:35;;;;;;;41.30;30.60;;;;;;;1.65;100.00;100632.52;87534;273;22654;-73
2024/03/22 02:29:35;;;;;;;40.10;31.10;;;;;;;1.69;100.00;100631.74;87463;269;138406;-75
2024/03/22 02:31:36;;;;;;;46.60;30.80;;;;;;;1.73;100.00;100634.68;87553;265;22571;-73
2024/03/22 02:33:37;;;;;;;37.50;29.60;;;;;;;1.75;100.00;100633.33;87409;271;136932;-73
2024/03/22 02:35:37;;;;;;;46.30;30.70;;;;;;;1.76;100.00;100634.13;87516;270;22557;-73
2024/03/22 02:37:38;;;;;;;39.40;30.90;;;;;;;1.76;100.00;100629.56;87398;277;137964;-73
2024/03/22 02:39:39;;;;;;;40.30;29.50;;;;;;;1.75;100.00;100634.01;87547;269;22563;-73
2024/03/22 02:41:39;;;;;;;40.20;31.30;;;;;;;1.75;100.00;100633.87;87433;273;136994;-72
2024/03/22 02:43:40;;;;;;;41.90;31.20;;;;;;;1.74;100.00;100633.86;87494;269;22571;-71
2024/03/22 02:45:40;;;;;;;39.80;30.60;;;;;;;1.74;100.00;100633.20;87439;265;137688;-72
2024/03/22 02:47:41;;;;;;;44.50;32.40;;;;;;;1.70;100.00;100630.34;87513;279;24472;-74
2024/03/22 02:49:42;;;;;;;43.50;30.40;;;;;;;1.68;100.00;100628.77;87448;273;137343;-73
2024/03/22 02:51:42;;;;;;;38.90;31.20;;;;;;;1.65;100.00;100628.69;87562;270;25111;-71
2024/03/22 02:53:43;;;;;;;43.70;31.60;;;;;;;1.62;100.00;100631.00;87434;273;137096;-71
2024/03/22 02:55:44;;;;;;;45.00;30.50;;;;;;;1.61;100.00;100631.16;87585;265;22614;-75
2024/03/22 02:57:44;;;;;;;43.00;31.00;;;;;;;1.60;100.00;100630.19;87455;269;136852;-72
2024/03/22 02:59:45;;;;;;;38.50;30.80;;;;;;;1.61;100.00;100632.38;87537;269;24793;-73
2024/03/22 03:01:46;;;;;;;44.70;30.80;;;;;;;1.60;100.00;100633.48;87438;266;136824;-72
2024/03/22 03:03:47;;;;;;;41.90;31.30;;;;;;;1.59;100.00;100632.86;87502;269;25178;-74
2024/03/22 03:05:48;;;;;;;42.40;30.20;;;;;;;1.58;100.00;100631.37;87511;269;137350;-72
2024/03/22 03:07:50;;;;;;;40.70;29.20;;;;;;;1.57;100.00;100630.56;87527;278;25195;-73
2024/03/22 03:09:51;;;;;;;41.40;29.40;;;;;;;1.53;100.00;100631.05;87527;264;136807;-72
2024/03/22 03:11:51;;;;;;;38.90;29.20;;;;;;;1.51;100.00;100628.74;87623;273;22571;-72
2024/03/22 03:13:52;;;;;;;40.70;30.50;;;;;;;1.51;100.00;100627.88;87381;269;136707;-73
2024/03/22 03:15:53;;;;;;;44.70;30.70;;;;;;;1.50;100.00;100628.09;87479;273;22588;-73
2024/03/22 03:17:54;;;;;;;39.20;30.90;;;;;;;1.48;100.00;100630.58;87180;276;137813;-70
2024/03/22 03:19:54;;;;;;;43.50;29.70;;;;;;;1.46;100.00;100630.20;87338;264;25175;-70
2024/03/22 03:21:55;;;;;;;45.20;32.70;;;;;;;1.45;100.00;100632.42;87340;278;136704;-70
2024/03/22 03:23:56;;;;;;;39.40;31.20;;;;;;;1.44;100.00;100628.99;87510;273;25069;-73
2024/03/22 03:25:56;;;;;;;41.70;31.10;;;;;;;1.44;100.00;100630.05;87417;269;136617;-71
2024/03/22 03:27:57;;;;;;;43.50;32.50;;;;;;;1.42;100.00;100628.77;87495;265;25182;-71
2024/03/22 03:29:57;;;;;;;47.00;33.50;;;;;;;1.40;100.00;100631.20;87359;270;136713;-79
2024/03/22 03:31:58;;;;;;;40.20;30.10;;;;;;;1.38;100.00;100628.27;87479;273;22586;-71
2024/03/22 03:33:59;;;;;;;42.90;31.90;;;;;;;1.37;100.00;100630.20;87435;270;136717;-70
2024/03/22 03:35:59;;;;;;;41.80;32.10;;;;;;;1.38;100.00;100632.59;87443;270;22641;-72
2024/03/22 03:38:00;;;;;;;42.20;31.60;;;;;;;1.39;100.00;100633.61;87344;266;136574;-70
2024/03/22 03:40:01;;;;;;;41.10;30.90;;;;;;;1.40;100.00;100633.54;87475;274;23426;-72
2024/03/22 03:42:02;;;;;;;42.80;30.00;;;;;;;1.40;100.00;100631.72;87412;277;137937;-73
2024/03/22 03:44:03;;;;;;;42.50;31.80;;;;;;;1.40;100.00;100632.27;87491;273;22628;-71
2024/03/22 03:46:03;;;;;;;42.10;31.00;;;;;;;1.38;100.00;100628.39;87494;278;26204;-70
2024/03/22 03:48:04;;;;;;;42.70;30.70;;;;;;;1.40;100.00;100627.05;87364;270;137232;-70
2024/03/22 03:50:05;;;;;;;46.20;32.90;;;;;;;1.43;100.00;100627.27;87489;269;22648;-72
2024/03/22 03:52:06;;;;;;;43.40;32.30;;;;;;;1.48;100.00;100626.38;87378;269;137999;-73
2024/03/22 03:54:06;;;;;;;52.90;33.10;;;;;;;1.49;100.00;100625.63;87503;269;22555;-73
2024/03/22 03:56:07;;;;;;;45.30;31.00;;;;;;;1.49;100.00;100626.52;87435;273;138181;-72
2024/03/22 03:58:08;;;;;;;43.30;32.70;;;;;;;1.48;100.00;100626.73;87512;269;23810;-73
2024/03/22 04:00:09;;;;;;;49.00;33.30;;;;;;;1.48;100.00;100625.86;87394;271;137183;-71
2024/03/22 04:02:10;;;;;;;49.10;32.90;;;;;;;1.47;100.00;100622.41;87473;262;22645;-72
2024/03/22 04:04:11;;;;;;;48.30;31.80;;;;;;;1.46;100.00;100624.92;87373;265;137184;-71
2024/03/22 04:06:12;;;;;;;41.60;32.40;;;;;;;1.48;100.00;100626.23;87463;271;23907;-76
2024/03/22 04:08:13;;;;;;;42.70;30.30;;;;;;;1.50;100.00;100627.09;87391;269;138404;-77
2024/03/22 04:10:13;;;;;;;47.20;30.80;;;;;;;1.51;100.00;100628.57;87355;279;24061;-71
2024/03/22 04:12:14;;;;;;;42.00;30.80;;;;;;;1.49;100.00;100626.98;87399;271;136925;-70
2024/03/22 04:14:15;;;;;;;42.20;31.30;;;;;;;1.49;100.00;100634.52;87462;269;22558;-70
2024/03/22 04:16:16;;;;;;;43.20;31.60;;;;;;;1.47;100.00;100631.16;87357;274;137998;-70
2024/03/22 04:18:17;;;;;;;46.60;33.20;;;;;;;1.47;100.00;100632.73;87274;272;25329;-74
2024/03/22 04:20:17;;;;;;;45.90;32.00;;;;;;;1.55;100.00;100632.32;87154;268;137117;-74
2024/03/22 04:22:18;;;;;;;44.70;33.10;;;;;;;1.70;100.00;100632.27;87513;277;22561;-73
2024/03/22 04:24:19;;;;;;;47.10;32.30;;;;;;;1.91;100.00;100632.77;87385;266;137929;-73
2024/03/22 04:26:20;;;;;;;43.50;31.20;;;;;;;2.16;100.00;100629.48;87416;272;25265;-72
2024/03/22 04:28:21;;;;;;;43.40;31.60;;;;;;;2.47;100.00;100632.50;87261;271;136546;-72
2024/03/22 04:30:22;;;;;;;44.10;31.10;;;;;;;2.81;100.00;100632.63;87356;271;22702;-74
2024/03/22 04:32:23;;;;;;;40.10;28.80;;;;;;;3.15;100.00;100631.08;87327;267;137002;-73
2024/03/22 04:34:24;;;;;;;44.00;30.20;;;;;;;3.50;100.00;100625.80;87543;271;24011;-73
2024/03/22 04:36:25;;;;;;;39.00;29.20;;;;;;;3.85;100.00;100627.58;87270;270;136838;-75
2024/03/22 04:38:26;;;;;;;45.40;32.00;;;;;;;4.18;100.00;100629.05;87427;269;23008;-75
2024/03/22 04:40:27;;;;;;;43.50;32.20;;;;;;;4.49;100.00;100628.10;87449;269;136654;-74
2024/03/22 04:42:27;;;;;;;41.10;29.90;;;;;;;4.80;100.00;100631.07;87572;271;22593;-74
2024/03/22 04:44:28;;;;;;;39.50;30.50;;;;;;;5.11;100.00;100633.07;87388;270;138098;-75
2024/03/22 04:46:29;;;;;;;40.20;29.60;;;;;;;5.44;100.00;100632.05;87498;277;22598;-76
2024/03/22 04:48:30;;;;;;;40.50;30.50;;;;;;;5.78;100.00;100630.73;87389;277;137806;-74
2024/03/22 04:50:31;;;;;;;45.50;29.00;;;;;;;6.12;100.00;100630.64;87495;269;22651;-75
2024/03/22 04:52:32;;;;;;;36.20;28.80;;;;;;;6.45;100.00;100630.89;87429;274;137071;-75
2024/03/22 04:54:33;;;;;;;35.90;28.40;;;;;;;6.76;100.00;100632.14;87480;270;22586;-76
2024/03/22 04:56:34;;;;;;;34.20;27.50;;;;;;;7.06;100.00;100634.87;87569;270;137490;-75
2024/03/22 04:58:34;;;;;;;39.20;29.40;;;;;;;7.37;100.00;100634.21;87581;270;25089;-78
2024/03/22 05:00:35;;;;;;;35.30;30.30;;;;;;;7.66;100.00;100633.31;87624;269;137606;-77
2024/03/22 05:02:36;;;;;;;42.00;29.50;;;;;;;7.94;100.00;100633.46;87693;269;22684;-74
2024/03/22 05:04:37;;;;;;;38.30;30.30;;;;;;;8.20;100.00;100630.20;87297;269;137130;-75
2024/03/22 05:06:38;;;;;;;39.90;30.00;;;;;;;8.43;100.00;100629.67;87588;269;22561;-75
2024/03/22 05:08:38;;;;;;;36.50;30.70;;;;;;;8.64;99.78;100631.30;87459;271;136259;-74
2024/03/22 05:10:39;;;;;;;34.60;28.10;;;;;;;8.89;97.78;100630.02;87390;270;25095;-77
2024/03/22 05:12:40;;;;;;;34.40;28.60;;;;;;;9.13;96.39;100631.38;87914;278;136368;-78
2024/03/22 05:14:40;;;;;;;34.60;27.80;;;;;;;9.38;94.66;100635.01;89107;267;22599;-75
2024/03/22 05:16:41;;;;;;;37.40;28.90;;;;;;;9.62;92.64;100634.10;89374;267;137602;-75
2024/03/22 05:18:43;;;;;;;37.20;29.90;;;;;;;9.82;91.25;100624.11;88769;277;22519;-75
2024/03/22 05:20:44;;;;;;;34.20;26.30;;;;;;;10.03;89.91;100624.77;88794;273;137444;-75
2024/03/22 05:22:45;;;;;;;36.00;27.80;;;;;;;10.24;88.84;100628.71;88265;273;22585;-76
2024/03/22 05:24:46;;;;;;;35.60;28.80;;;;;;;10.48;87.63;100631.43;87545;273;137769;-75
2024/03/22 05:26:46;;;;;;;35.20;29.00;;;;;;;10.73;86.26;100633.23;87771;273;22641;-74
2024/03/22 05:29:59;;;;;;;38.20;28.90;;;;;;;11.05;85.33;100632.70;85050;304;601836;-75
2024/03/22 05:32:00;;;;;;;37.10;30.00;;;;;;;11.30;83.68;100634.13;86217;292;22947;-76
2024/03/22 05:34:01;;;;;;;39.10;31.10;;;;;;;11.54;82.26;100631.17;86158;292;135910;-77
2024/03/22 05:36:02;;;;;;;44.40;30.70;;;;;;;11.79;81.19;100626.58;86106;286;137288;-76
2024/03/22 05:38:03;;;;;;;32.50;28.50;;;;;;;12.04;80.10;100624.23;86805;277;22559;-80
2024/03/22 05:40:06;;;;;;;37.10;28.00;;;;;;;12.27;78.91;100619.81;86720;284;135850;-77
2024/03/22 05:42:06;;;;;;;36.70;30.20;;;;;;;12.47;77.97;100618.65;86619;280;24305;-74
2024/03/22 05:44:07;;;;;;;43.90;31.10;;;;;;;12.69;77.01;100618.42;86003;281;886893;-83
2024/03/22 05:46:08;;;;;;;35.20;28.20;;;;;;;12.87;75.71;100617.52;86945;275;24004;-78
2024/03/22 05:48:09;;;;;;;36.20;31.10;;;;;;;13.03;75.56;100612.09;86709;280;135786;-82
2024/03/22 05:50:09;;;;;;;36.20;32.20;;;;;;;13.17;74.34;100618.88;87163;274;22560;-78
2024/03/22 05:52:12;;;;;;;43.20;35.30;;;;;;;13.31;72.99;100619.53;86862;277;136412;-75
2024/03/22 05:54:12;;;;;;;45.50;37.70;;;;;;;13.46;71.96;100621.09;86954;283;22562;-79
2024/03/22 05:56:14;;;;;;;46.70;39.20;;;;;;;13.57;70.83;100624.63;86643;276;136153;-79
2024/03/22 05:58:14;;;;;;;47.00;39.00;;;;;;;13.68;70.28;100626.77;88787;270;22664;-80
2024/03/22 06:00:15;;;;;;;42.80;38.10;;;;;;;13.80;69.01;100628.36;87283;275;136267;-78
2024/03/22 06:02:16;;;;;;;43.90;39.10;;;;;;;13.93;68.78;100626.00;87150;274;22566;-79
2024/03/22 06:04:17;;;;;;;46.70;37.50;;;;;;;14.06;67.99;100624.04;86978;284;135959;-78
2024/03/22 06:06:17;;;;;;;49.50;38.10;;;;;;;14.18;68.17;100625.34;86966;277;23971;-77
2024/03/22 06:08:20;;;;;;;44.90;37.80;;;;;;;14.33;68.01;100622.16;86633;276;136468;-76
2024/03/22 06:10:22;;;;;;;45.30;37.90;;;;;;;14.44;67.63;100625.34;86713;280;24059;-75
2024/03/22 06:12:22;;;;;;;45.60;39.90;;;;;;;14.50;67.45;100628.56;86637;271;136959;-76
2024/03/22 06:14:23;;;;;;;44.40;39.40;;;;;;;14.55;67.22;100627.37;86621;276;22690;-75
2024/03/22 06:16:24;;;;;;;45.70;40.40;;;;;;;14.64;66.87;100629.58;86619;272;135653;-76
2024/03/22 06:18:24;;;;;;;43.90;38.80;;;;;;;14.72;66.33;100630.05;87215;276;24040;-75
2024/03/22 06:20:25;;;;;;;44.10;38.90;;;;;;;14.83;65.80;100630.09;87039;272;137072;-73
2024/03/22 06:22:26;;;;;;;47.20;39.10;;;;;;;14.94;65.20;100629.73;86831;272;22665;-73
2024/03/22 06:24:27;;;;;;;44.50;38.20;;;;;;;15.08;64.84;100630.40;86570;275;135685;-73
2024/03/22 06:26:28;;;;;;;49.70;39.00;;;;;;;15.19;64.35;100630.16;86665;284;22570;-72
2024/03/22 06:28:29;;;;;;;40.00;35.70;;;;;;;15.20;63.41;100627.48;86747;271;136527;-73
2024/03/22 06:30:29;;;;;;;41.80;37.30;;;;;;;15.16;63.09;100626.57;86822;280;24066;-76
2024/03/22 06:32:30;;;;;;;43.50;36.60;;;;;;;15.15;62.70;100625.47;87157;275;135919;-72
2024/03/22 06:34:31;;;;;;;39.00;33.80;;;;;;;15.19;62.04;100626.73;87235;281;22576;-73
2024/03/22 06:36:34;;;;;;;38.50;33.50;;;;;;;15.24;61.40;100624.56;87161;275;136299;-73
2024/03/22 06:38:35;;;;;;;37.20;32.50;;;;;;;15.26;60.57;100623.27;86855;270;22505;-74
2024/03/22 06:40:36;;;;;;;34.40;30.80;;;;;;;15.32;60.31;100621.85;87109;275;137296;-73
2024/03/22 06:42:36;;;;;;;33.10;29.60;;;;;;;15.37;58.73;100622.00;86762;271;22624;-73
2024/03/22 06:44:37;;;;;;;31.10;26.10;;;;;;;15.15;57.66;100622.02;86653;272;136351;-74
2024/03/22 06:46:39;;;;;;;29.90;25.50;;;;;;;14.57;57.80;100623.62;87175;271;23482;-74
2024/03/22 06:48:40;;;;;;;29.50;23.70;;;;;;;13.77;59.75;100625.17;87089;275;135863;-77
2024/03/22 06:50:42;;;;;;;27.20;24.40;;;;;;;13.01;61.99;100623.64;87075;284;22575;-75
2024/03/22 06:52:42;;;;;;;31.30;25.00;;;;;;;12.46;64.20;100619.93;86864;277;136377;-67
2024/03/22 06:54:43;;;;;;;31.80;26.90;;;;;;;12.01;65.96;100617.52;86858;274;24033;-75
2024/03/22 06:56:44;;;;;;;37.50;27.20;;;;;;;11.66;68.56;100619.45;86915;273;135652;-76
2024/03/22 06:58:44;;;;;;;35.10;31.40;;;;;;;11.40;70.37;100627.81;87166;275;26191;-77
2024/03/22 07:00:45;;;;;;;38.20;32.20;;;;;;;11.18;71.77;100623.80;87105;279;137345;-76
2024/03/22 07:02:46;;;;;;;40.00;33.30;;;;;;;11.05;73.11;100627.98;87135;275;22575;-76
2024/03/22 07:04:47;;;;;;;41.20;34.60;;;;;;;10.94;73.48;100627.95;86968;272;136209;-76
2024/03/22 07:06:48;;;;;;;46.80;34.10;;;;;;;10.79;74.38;100627.63;86695;273;22690;-77
2024/03/22 07:08:48;;;;;;;37.20;32.70;;;;;;;10.66;75.64;100623.10;87270;278;136378;-76
2024/03/22 07:10:50;;;;;;;41.90;33.90;;;;;;;10.60;76.16;100621.13;87282;275;22604;-77
2024/03/22 07:12:51;;;;;;;38.90;32.70;;;;;;;10.57;76.58;100623.75;87396;281;137253;-73
2024/03/22 07:14:52;;;;;;;35.50;31.80;;;;;;;10.52;76.37;100617.40;87406;274;23753;-77
2024/03/22 07:16:55;;;;;;;36.10;31.90;;;;;;;10.40;77.02;100616.26;87072;282;136811;-79
2024/03/22 07:18:56;;;;;;;36.00;31.00;;;;;;;10.23;78.00;100618.16;87102;280;22601;-75
2024/03/22 07:21:01;;;;;;;40.30;32.50;;;;;;;10.08;79.28;100618.28;87074;283;137102;-74
2024/03/22 07:23:02;;;;;;;35.30;30.40;;;;;;;9.96;79.94;100618.46;87379;275;24113;-78
2024/03/22 07:25:03;;;;;;;31.90;28.50;;;;;;;9.88;80.43;100616.66;86994;275;135912;-78
2024/03/22 07:27:03;;;;;;;35.30;30.30;;;;;;;9.88;81.34;100617.89;86711;281;22611;-80
2024/03/22 07:29:04;;;;;;;34.50;29.30;;;;;;;9.94;81.09;100614.05;86939;276;135788;-76
2024/03/22 07:31:05;;;;;;;35.90;29.70;;;;;;;9.99;81.03;100617.34;87131;271;25246;-79
2024/03/22 07:33:05;;;;;;;39.20;30.30;;;;;;;10.04;81.07;100616.84;86958;280;136223;-78
2024/03/22 07:35:07;;;;;;;34.60;26.90;;;;;;;10.09;80.81;100616.37;87252;274;22848;-78
2024/03/22 07:37:07;;;;;;;37.40;27.20;;;;;;;10.20;80.35;100616.43;87098;275;137170;-75
2024/03/22 07:39:09;;;;;;;32.90;26.90;;;;;;;10.28;80.05;100618.09;87172;275;24043;-78
2024/03/22 07:41:10;;;;;;;31.60;26.80;;;;;;;10.32;79.89;100619.66;86834;281;135898;-77
2024/03/22 07:43:13;;;;;;;35.00;28.70;;;;;;;10.35;80.04;100616.83;87073;281;25323;-78
2024/03/22 07:45:13;;;;;;;30.90;25.10;;;;;;;10.41;79.68;100610.97;87128;282;135932;-77
2024/03/22 07:47:14;;;;;;;33.20;25.00;;;;;;;10.47;79.18;100606.36;87217;274;23978;-78
2024/03/22 07:49:15;;;;;;;35.90;24.30;;;;;;;10.51;77.71;100606.43;87157;274;135952;-77
2024/03/22 07:51:16;;;;;;;29.50;21.10;;;;;;;10.50;77.49;100603.13;87220;275;22564;-76
2024/03/22 07:53:17;;;;;;;22.90;19.50;;;;;;;10.51;78.16;100601.23;87226;274;135959;-77
2024/03/22 07:55:17;;;;;;;24.60;20.30;;;;;;;10.55;77.05;100599.02;87227;275;24184;-76
2024/03/22 07:57:18;;;;;;;22.80;19.40;;;;;;;10.55;76.52;100597.89;87125;279;135653;-76
2024/03/22 07:59:19;;;;;;;23.80;20.00;;;;;;;10.58;77.27;100594.23;87182;275;25165;-76
2024/03/22 08:01:20;;;;;;;20.10;14.60;;;;;;;10.65;76.74;100600.41;87161;274;136179;-75
2024/03/22 08:03:20;;;;;;;14.50;12.60;;;;;;;10.74;75.28;100601.77;87343;281;22556;-77
2024/03/22 08:05:21;;;;;;;16.10;13.90;;;;;;;10.83;74.76;100597.96;87364;272;136561;-77
2024/03/22 08:07:22;;;;;;;14.30;12.80;;;;;;;10.89;73.59;100598.79;87474;268;22566;-74
2024/03/22 08:09:23;;;;;;;16.50;13.90;;;;;;;10.93;72.36;100600.23;87301;271;136289;-75
2024/03/22 08:11:24;;;;;;;16.50;11.20;;;;;;;10.92;72.93;100598.90;87405;280;24010;-75
2024/03/22 08:13:25;;;;;;;17.90;11.90;;;;;;;10.97;72.74;100595.58;87243;264;135933;-74
2024/03/22 08:15:26;;;;;;;18.70;12.80;;;;;;;11.04;72.27;100596.48;87453;279;22577;-75
2024/03/22 08:17:27;;;;;;;14.60;13.20;;;;;;;11.11;72.32;100596.24;87166;274;135845;-77
2024/03/22 08:19:28;;;;;;;21.70;14.20;;;;;;;11.19;72.18;100592.09;87432;269;25153;-74
2024/03/22 08:21:29;;;;;;;16.70;13.60;;;;;;;11.24;72.35;100586.52;87267;280;137468;-74
2024/03/22 08:23:30;;;;;;;16.40;14.60;;;;;;;11.27;72.54;100585.16;87210;274;22584;-74
2024/03/22 08:25:31;;;;;;;21.80;15.20;;;;;;;11.31;72.12;100583.98;87350;268;137222;-74
2024/03/22 08:27:32;;;;;;;15.70;13.90;;;;;;;11.32;71.77;100579.34;87419;280;25124;-76
2024/03/22 08:29:32;;;;;;;16.80;12.90;;;;;;;11.33;71.65;100579.03;87327;273;136298;-74
2024/03/22 08:31:33;;;;;;;18.80;12.10;;;;;;;11.35;70.69;100575.56;87333;281;22567;-77
2024/03/22 08:33:34;;;;;;;16.60;12.50;;;;;;;11.35;70.81;100572.48;87420;270;136238;-74
2024/03/22 08:35:35;;;;;;;13.30;10.30;;;;;;;11.36;69.81;100572.21;87564;266;22642;-74
2024/03/22 08:37:35;;;;;;;10.70;9.60;;;;;;;11.35;68.36;100571.74;87219;273;136186;-77
2024/03/22 08:39:36;;;;;;;11.50;9.80;;;;;;;11.34;68.34;100568.58;87353;279;22628;-77
2024/03/22 08:41:37;;;;;;;8.90;7.50;;;;;;;11.36;68.03;100568.27;87220;271;136470;-75
2024/03/22 08:43:38;;;;;;;10.20;5.30;;;;;;;11.37;63.78;100564.25;87220;275;22555;-75
2024/03/22 08:45:39;;;;;;;9.10;7.40;;;;;;;11.33;62.52;100559.98;87232;272;135602;-75
2024/03/22 08:47:40;;;;;;;10.30;8.90;;;;;;;11.25;64.53;100560.05;87314;281;23988;-77
2024/03/22 08:49:43;;;;;;;11.10;8.00;;;;;;;11.19;64.77;100555.63;87293;272;137578;-78
2024/03/22 08:51:45;;;;;;;12.50;11.00;;;;;;;11.15;66.00;100553.48;87377;277;25188;-77
2024/03/22 08:53:46;;;;;;;15.40;11.00;;;;;;;11.13;66.72;100553.33;87398;267;136470;-74
2024/03/22 08:55:48;;;;;;;13.60;10.50;;;;;;;11.12;66.68;100549.55;87317;272;22551;-76
2024/03/22 08:57:48;;;;;;;11.40;9.10;;;;;;;11.14;67.58;100549.52;87129;282;136447;-75
2024/03/22 08:59:49;;;;;;;11.30;9.20;;;;;;;11.21;67.53;100552.00;87442;279;25114;-77
2024/03/22 09:01:50;;;;;;;13.10;10.00;;;;;;;11.29;66.83;100552.88;87168;273;136457;-78
2024/03/22 09:03:51;;;;;;;9.20;7.60;;;;;;;11.35;65.74;100544.03;87371;273;22655;-76
2024/03/22 09:05:53;;;;;;;10.50;5.70;;;;;;;11.37;63.38;100544.67;87258;272;136115;-76
2024/03/22 09:07:55;;;;;;;30.20;11.90;;;;;;;11.37;61.91;100546.14;87450;268;22670;-75
2024/03/22 09:09:56;;;;;;;17.30;7.90;;;;;;;11.36;61.48;100545.23;87162;274;136740;-81
2024/03/22 09:11:57;;;;;;;12.00;7.20;;;;;;;11.35;61.94;100539.07;87187;264;22581;-80
2024/03/22 09:13:58;;;;;;;8.60;6.30;;;;;;;11.37;61.52;100539.54;87142;267;135985;-79